createdAt,value
2018-06-09T00:01:02.900Z,91.90
2018-06-09T00:03:31.953Z,91.90
2018-06-09T00:06:01.038Z,91.80
2018-06-09T00:08:30.052Z,91.80
2018-06-09T00:10:59.881Z,92.10
2018-06-09T00:13:29.078Z,92.20
2018-06-09T00:15:58.115Z,92.20
2018-06-09T00:18:30.033Z,92.30
2018-06-09T00:20:59.074Z,92.30
2018-06-09T00:23:28.192Z,92.20
2018-06-09T00:25:57.282Z,92.20
2018-06-09T00:28:26.357Z,92.20
2018-06-09T00:30:55.988Z,92.20
2018-06-09T00:33:25.084Z,92.00
2018-06-09T00:35:54.211Z,91.90
2018-06-09T00:38:23.249Z,92.00
2018-06-09T00:40:53.029Z,92.00
2018-06-09T00:43:22.594Z,92.00
2018-06-09T00:45:51.417Z,92.00
2018-06-09T00:48:21.599Z,92.00
2018-06-09T00:50:50.670Z,92.20
2018-06-09T00:53:20.212Z,92.40
2018-06-09T00:55:49.292Z,92.60
2018-06-09T00:58:18.914Z,92.60
2018-06-09T01:00:47.984Z,92.80
2018-06-09T01:03:17.748Z,93.00
2018-06-09T01:05:46.904Z,93.00
2018-06-09T01:08:15.770Z,92.90
2018-06-09T01:10:44.907Z,92.80
2018-06-09T01:13:14.493Z,93.00
2018-06-09T01:15:43.456Z,92.60
2018-06-09T01:18:12.477Z,92.60
2018-06-09T01:20:41.444Z,92.50
2018-06-09T01:23:10.668Z,92.50
2018-06-09T01:25:39.745Z,92.40
2018-06-09T01:28:09.384Z,92.40
2018-06-09T01:30:38.436Z,92.30
2018-06-09T01:33:07.497Z,92.40
2018-06-09T01:35:36.535Z,92.30
2018-06-09T01:38:05.632Z,92.30
2018-06-09T01:40:34.715Z,92.30
2018-06-09T01:43:04.367Z,92.30
2018-06-09T01:45:33.483Z,92.40
2018-06-09T01:48:02.628Z,92.40
2018-06-09T01:50:32.096Z,92.40
2018-06-09T01:53:01.366Z,92.50
2018-06-09T01:55:30.849Z,92.70
2018-06-09T01:58:00.401Z,92.70
2018-06-09T02:00:30.250Z,92.80
2018-06-09T02:02:59.367Z,92.90
2018-06-09T02:05:28.840Z,93.00
2018-06-09T02:07:58.060Z,93.10
2018-06-09T02:10:27.156Z,93.40
2018-06-09T02:12:56.141Z,93.00
2018-06-09T02:15:25.259Z,93.10
2018-06-09T02:17:54.239Z,93.00
2018-06-09T02:20:23.591Z,93.10
2018-06-09T02:22:52.851Z,93.10
2018-06-09T02:25:21.941Z,93.20
2018-06-09T02:27:50.905Z,93.20
2018-06-09T02:30:19.905Z,93.30
2018-06-09T02:32:49.020Z,93.40
2018-06-09T02:35:18.091Z,93.50
2018-06-09T02:37:47.554Z,93.50
2018-06-09T02:40:16.580Z,93.50
2018-06-09T02:42:45.852Z,93.50
2018-06-09T02:45:15.493Z,93.70
2018-06-09T02:47:44.500Z,93.70
2018-06-09T02:50:13.505Z,93.80
2018-06-09T02:52:42.475Z,93.90
2018-06-09T02:55:11.614Z,93.90
2018-06-09T02:57:40.666Z,94.30
2018-06-09T03:00:10.013Z,94.40
2018-06-09T03:02:39.497Z,94.30
2018-06-09T03:05:08.873Z,94.30
2018-06-09T03:07:37.889Z,94.20
2018-06-09T03:10:06.981Z,94.30
2018-06-09T03:12:36.077Z,94.40
2018-06-09T03:15:05.165Z,94.50
2018-06-09T03:17:34.809Z,94.60
2018-06-09T03:20:03.884Z,94.70
2018-06-09T03:22:33.180Z,94.80
2018-06-09T03:25:02.599Z,95.00
2018-06-09T03:27:31.647Z,95.10
2018-06-09T03:30:01.004Z,95.20
2018-06-09T03:32:30.063Z,95.10
2018-06-09T03:34:59.508Z,95.30
2018-06-09T03:37:28.545Z,95.30
2018-06-09T03:39:57.448Z,95.30
2018-06-09T03:42:26.440Z,95.20
2018-06-09T03:44:55.417Z,95.20
2018-06-09T03:47:24.531Z,95.20
2018-06-09T03:49:54.370Z,95.30
2018-06-09T03:52:23.829Z,95.10
2018-06-09T03:54:53.047Z,95.10
2018-06-09T03:57:22.620Z,95.00
2018-06-09T03:59:52.116Z,95.40
2018-06-09T04:02:21.230Z,95.10
2018-06-09T04:04:50.361Z,95.10
2018-06-09T04:07:19.436Z,95.30
2018-06-09T04:09:49.136Z,95.50
2018-06-09T04:12:18.248Z,95.70
2018-06-09T04:14:47.324Z,95.80
2018-06-09T04:17:16.770Z,95.80
2018-06-09T04:19:46.284Z,95.70
2018-06-09T04:22:15.301Z,95.60
2018-06-09T04:24:44.316Z,95.60
2018-06-09T04:27:13.556Z,95.30
2018-06-09T04:29:43.602Z,95.30
2018-06-09T04:32:12.630Z,95.30
2018-06-09T04:34:42.927Z,95.50
2018-06-09T04:37:12.980Z,95.50
2018-06-09T04:39:42.093Z,95.70
2018-06-09T04:42:11.202Z,95.60
2018-06-09T04:44:40.243Z,95.50
2018-06-09T04:47:10.148Z,95.30
2018-06-09T04:49:39.657Z,95.20
2018-06-09T04:52:08.707Z,95.20
2018-06-09T04:54:38.570Z,95.00
2018-06-09T04:57:07.828Z,95.00
2018-06-09T04:59:37.597Z,94.80
2018-06-09T05:02:06.830Z,94.90
2018-06-09T05:04:35.903Z,95.10
2018-06-09T05:07:04.989Z,94.90
2018-06-09T05:09:34.012Z,94.70
2018-06-09T05:12:03.512Z,94.70
2018-06-09T05:17:01.891Z,94.50
2018-06-09T05:19:31.409Z,94.40
2018-06-09T05:22:00.485Z,94.40
2018-06-09T05:24:29.677Z,94.20
2018-06-09T05:26:59.228Z,94.00
2018-06-09T05:29:28.369Z,93.90
2018-06-09T05:31:57.296Z,93.80
2018-06-09T05:34:26.552Z,93.70
2018-06-09T05:36:55.789Z,93.70
2018-06-09T05:39:24.964Z,93.60
2018-06-09T05:41:54.102Z,93.50
2018-06-09T05:44:23.468Z,93.60
2018-06-09T05:46:53.267Z,93.60
2018-06-09T05:49:22.706Z,93.40
2018-06-09T05:54:21.098Z,93.20
2018-06-09T05:56:50.158Z,93.10
2018-06-09T05:59:19.267Z,93.40
2018-06-09T06:01:48.380Z,92.90
2018-06-09T06:04:17.472Z,92.70
2018-06-09T06:06:46.556Z,92.70
2018-06-09T06:09:15.648Z,92.40
2018-06-09T06:11:44.989Z,92.50
2018-06-09T06:14:14.221Z,92.10
2018-06-09T06:16:43.325Z,92.00
2018-06-09T06:19:13.678Z,91.90
2018-06-09T06:21:43.184Z,91.80
2018-06-09T06:24:12.320Z,91.40
2018-06-09T06:26:41.466Z,91.50
2018-06-09T06:29:11.193Z,91.20
2018-06-09T06:31:40.252Z,91.30
2018-06-09T06:34:10.641Z,91.40
2018-06-09T06:36:40.210Z,90.90
2018-06-09T06:39:10.008Z,90.50
2018-06-09T06:41:39.120Z,90.10
2018-06-09T06:44:08.176Z,89.00
2018-06-09T06:46:37.420Z,89.20
2018-06-09T06:49:07.091Z,89.80
2018-06-09T06:51:36.225Z,90.30
2018-06-09T06:54:05.373Z,90.00
2018-06-09T06:56:34.523Z,90.10
2018-06-09T06:59:04.992Z,90.10
2018-06-09T07:01:34.520Z,90.10
2018-06-09T07:04:03.532Z,90.20
2018-06-09T07:06:32.497Z,90.00
2018-06-09T07:09:02.269Z,89.40
2018-06-09T07:11:31.566Z,89.40
2018-06-09T07:14:01.562Z,89.10
2018-06-09T07:16:30.755Z,89.50
2018-06-09T07:19:00.244Z,89.00
2018-06-09T07:21:30.154Z,87.40
2018-06-09T07:23:59.361Z,87.50
2018-06-09T07:26:28.454Z,87.70
2018-06-09T07:28:57.524Z,86.80
2018-06-09T07:31:26.459Z,86.50
2018-06-09T07:33:55.508Z,85.70
2018-06-09T07:36:25.040Z,85.50
2018-06-09T07:38:54.135Z,83.90
2018-06-09T07:41:23.947Z,83.40
2018-06-09T07:43:53.045Z,83.40
2018-06-09T07:46:22.134Z,82.00
2018-06-09T07:48:51.445Z,81.40
2018-06-09T07:51:20.505Z,81.30
2018-06-09T07:53:49.592Z,81.00
2018-06-09T07:56:19.141Z,81.20
2018-06-09T07:58:48.122Z,80.50
2018-06-09T08:01:17.227Z,79.90
2018-06-09T08:03:46.317Z,79.60
2018-06-09T08:06:15.552Z,79.10
2018-06-09T08:08:44.800Z,78.40
2018-06-09T08:11:13.779Z,78.10
2018-06-09T08:13:43.012Z,78.40
2018-06-09T08:16:12.921Z,78.50
2018-06-09T08:18:41.921Z,77.10
2018-06-09T08:21:11.411Z,75.20
2018-06-09T08:23:40.616Z,76.20
2018-06-09T08:26:09.685Z,75.40
2018-06-09T08:28:38.698Z,75.00
2018-06-09T08:31:07.817Z,74.40
2018-06-09T08:33:37.787Z,75.60
2018-06-09T08:36:06.923Z,74.80
2018-06-09T08:38:36.919Z,74.80
2018-06-09T08:41:06.150Z,73.10
2018-06-09T08:43:35.852Z,73.70
2018-06-09T08:46:04.899Z,72.00
2018-06-09T08:48:34.788Z,72.60
2018-06-09T08:51:03.893Z,72.90
2018-06-09T08:53:32.936Z,73.20
2018-06-09T08:56:03.046Z,73.30
2018-06-09T08:58:32.148Z,72.80
2018-06-09T09:01:01.742Z,72.50
2018-06-09T09:03:30.880Z,72.90
2018-06-09T09:06:00.438Z,73.60
2018-06-09T09:08:29.965Z,71.80
2018-06-09T09:10:58.981Z,71.60
2018-06-09T09:13:28.159Z,70.70
2018-06-09T09:15:57.164Z,71.30
2018-06-09T09:18:26.201Z,72.20
2018-06-09T09:20:55.242Z,70.80
2018-06-09T09:23:24.316Z,72.60
2018-06-09T09:25:53.467Z,71.20
2018-06-09T09:28:22.500Z,69.60
2018-06-09T09:30:51.620Z,68.40
2018-06-09T09:33:21.077Z,68.70
2018-06-09T09:35:50.714Z,67.90
2018-06-09T09:38:19.732Z,68.30
2018-06-09T09:40:48.801Z,68.70
2018-06-09T09:43:17.916Z,68.40
2018-06-09T09:45:47.540Z,67.70
2018-06-09T09:50:45.999Z,69.20
2018-06-09T09:53:15.780Z,67.90
2018-06-09T09:55:44.884Z,67.50
2018-06-09T09:58:14.028Z,66.60
2018-06-09T10:00:43.477Z,66.60
2018-06-09T10:03:14.275Z,66.30
2018-06-09T10:05:44.184Z,67.00
2018-06-09T10:08:13.343Z,66.50
2018-06-09T10:10:42.518Z,65.40
2018-06-09T10:13:11.540Z,65.80
2018-06-09T10:15:40.649Z,64.40
2018-06-09T10:18:09.664Z,64.20
2018-06-09T10:20:38.622Z,63.30
2018-06-09T10:23:07.667Z,64.50
2018-06-09T10:25:36.841Z,62.50
2018-06-09T10:28:05.897Z,62.80
2018-06-09T10:30:34.899Z,64.40
2018-06-09T10:33:03.993Z,63.50
2018-06-09T10:35:33.080Z,61.80
2018-06-09T10:38:02.725Z,62.30
2018-06-09T10:40:32.416Z,62.90
2018-06-09T10:43:01.872Z,63.50
2018-06-09T10:45:31.498Z,62.30
2018-06-09T10:48:00.589Z,61.70
2018-06-09T10:50:29.620Z,60.30
2018-06-09T10:52:58.690Z,59.70
2018-06-09T10:55:28.035Z,60.00
2018-06-09T10:57:56.974Z,60.60
2018-06-09T11:00:26.235Z,61.20
2018-06-09T11:02:56.102Z,59.00
2018-06-09T11:05:25.301Z,60.50
2018-06-09T11:07:54.405Z,60.40
2018-06-09T11:10:23.565Z,59.80
2018-06-09T11:12:53.207Z,57.90
2018-06-09T11:15:22.296Z,57.90
2018-06-09T11:17:51.415Z,58.00
2018-06-09T11:20:20.464Z,58.80
2018-06-09T11:22:49.723Z,57.20
2018-06-09T11:25:19.135Z,55.30
2018-06-09T11:27:48.166Z,56.40
2018-06-09T11:30:17.285Z,55.60
2018-06-09T11:32:46.460Z,57.20
2018-06-09T11:35:16.406Z,56.40
2018-06-09T11:37:45.593Z,56.40
2018-06-09T11:40:15.036Z,56.40
2018-06-09T11:42:44.684Z,56.40
2018-06-09T11:45:13.883Z,56.20
2018-06-09T11:47:43.008Z,57.40
2018-06-09T11:50:13.874Z,55.60
2018-06-09T11:52:43.044Z,57.40
2018-06-09T11:55:13.135Z,55.50
2018-06-09T11:57:42.461Z,55.10
2018-06-09T12:00:11.643Z,53.30
2018-06-09T12:02:40.733Z,55.20
2018-06-09T12:05:09.862Z,55.40
2018-06-09T12:07:38.829Z,56.10
2018-06-09T12:10:07.928Z,55.60
2018-06-09T12:12:37.088Z,55.20
2018-06-09T12:15:07.118Z,55.00
2018-06-09T12:17:36.220Z,54.30
2018-06-09T12:20:05.550Z,54.80
2018-06-09T12:22:34.606Z,54.90
2018-06-09T12:25:04.174Z,55.80
2018-06-09T12:27:33.294Z,53.80
2018-06-09T12:30:02.420Z,53.60
2018-06-09T12:32:31.433Z,54.30
2018-06-09T12:35:00.591Z,53.80
2018-06-09T12:37:29.699Z,54.20
2018-06-09T12:39:58.793Z,54.00
2018-06-09T12:42:28.656Z,53.50
2018-06-09T12:44:57.788Z,54.10
2018-06-09T12:47:26.880Z,53.20
2018-06-09T12:49:55.984Z,52.40
2018-06-09T12:52:25.198Z,52.20
2018-06-09T12:54:54.726Z,51.20
2018-06-09T12:59:52.647Z,52.50
2018-06-09T13:02:22.529Z,51.40
2018-06-09T13:04:52.200Z,51.20
2018-06-09T13:07:21.213Z,53.00
2018-06-09T13:09:50.278Z,53.40
2018-06-09T13:12:19.632Z,51.90
2018-06-09T13:14:49.273Z,51.40
2018-06-09T13:17:18.389Z,52.50
2018-06-09T13:19:47.640Z,51.60
2018-06-09T13:22:16.909Z,50.80
2018-06-09T13:24:46.229Z,51.80
2018-06-09T13:27:15.297Z,52.50
2018-06-09T13:29:44.367Z,51.00
2018-06-09T13:32:13.647Z,51.70
2018-06-09T13:34:42.797Z,52.50
2018-06-09T13:37:11.848Z,51.60
2018-06-09T13:39:41.360Z,51.40
2018-06-09T13:42:11.067Z,52.00
2018-06-09T13:44:40.588Z,52.40
2018-06-09T13:47:09.671Z,52.20
2018-06-09T13:49:39.119Z,51.60
2018-06-09T13:52:08.383Z,50.70
2018-06-09T13:54:37.510Z,51.20
2018-06-09T13:57:06.684Z,51.20
2018-06-09T13:59:35.771Z,51.30
2018-06-09T14:02:05.096Z,51.00
2018-06-09T14:04:34.722Z,52.00
2018-06-09T14:07:03.985Z,51.00
2018-06-09T14:09:33.384Z,50.10
2018-06-09T14:12:02.481Z,49.20
2018-06-09T14:14:32.018Z,50.00
2018-06-09T14:17:01.180Z,50.20
2018-06-09T14:19:30.612Z,50.50
2018-06-09T14:21:59.773Z,51.20
2018-06-09T14:24:29.034Z,50.30
2018-06-09T14:26:58.139Z,51.40
2018-06-09T14:29:27.063Z,50.20
2018-06-09T14:31:56.057Z,51.40
2018-06-09T14:34:25.149Z,51.60
2018-06-09T14:36:55.018Z,51.80
2018-06-09T14:39:24.148Z,50.60
2018-06-09T14:41:53.574Z,51.80
2018-06-09T14:44:22.662Z,51.40
2018-06-09T14:46:51.645Z,50.50
2018-06-09T14:49:21.094Z,49.00
2018-06-09T14:56:47.515Z,51.80
2018-06-09T14:59:16.728Z,52.40
2018-06-09T15:01:46.212Z,52.40
2018-06-09T15:04:16.044Z,51.70
2018-06-09T15:06:45.128Z,52.00
2018-06-09T15:09:14.833Z,52.80
2018-06-09T15:11:43.928Z,51.90
2018-06-09T15:14:13.028Z,50.40
2018-06-09T15:16:42.688Z,50.60
2018-06-09T15:19:12.010Z,51.30
2018-06-09T15:21:41.190Z,50.90
2018-06-09T15:24:10.415Z,50.60
2018-06-09T15:26:40.078Z,52.20
2018-06-09T15:29:09.847Z,52.70
2018-06-09T15:31:39.129Z,52.00
2018-06-09T15:34:08.661Z,52.00
2018-06-09T15:36:37.852Z,51.20
2018-06-09T15:39:08.449Z,51.20
2018-06-09T15:41:38.073Z,50.90
2018-06-09T15:44:08.939Z,50.90
2018-06-09T15:46:38.183Z,50.90
2018-06-09T15:49:07.536Z,51.20
2018-06-09T15:51:36.644Z,50.90
2018-06-09T15:54:05.925Z,51.10
2018-06-09T15:56:35.373Z,52.60
2018-06-09T15:59:04.496Z,51.80
2018-06-09T16:01:33.720Z,52.50
2018-06-09T16:04:03.945Z,52.90
2018-06-09T16:06:33.853Z,52.90
2018-06-09T16:09:03.212Z,53.20
2018-06-09T16:11:32.749Z,53.30
2018-06-09T16:14:02.181Z,53.60
2018-06-09T16:16:31.501Z,53.80
2018-06-09T16:19:01.329Z,53.00
2018-06-09T16:21:30.340Z,52.70
2018-06-09T16:23:59.502Z,53.10
2018-06-09T16:26:28.833Z,54.10
2018-06-09T16:28:57.944Z,54.00
2018-06-09T16:31:27.097Z,54.10
2018-06-09T16:33:56.158Z,54.80
2018-06-09T16:36:25.281Z,55.60
2018-06-09T16:38:54.327Z,55.80
2018-06-09T16:41:23.510Z,56.40
2018-06-09T16:43:52.605Z,57.30
2018-06-09T16:46:21.636Z,58.90
2018-06-09T16:48:51.000Z,59.90
2018-06-09T16:51:20.376Z,60.70
2018-06-09T16:53:50.189Z,61.50
2018-06-09T16:56:19.204Z,62.10
2018-06-09T16:58:48.345Z,62.80
2018-06-09T17:01:17.504Z,63.80
2018-06-09T17:03:46.646Z,64.60
2018-06-09T17:06:16.016Z,64.60
2018-06-09T17:08:45.577Z,65.20
2018-06-09T17:11:14.698Z,65.70
2018-06-09T17:13:43.920Z,66.00
2018-06-09T17:16:13.078Z,66.20
2018-06-09T17:18:42.112Z,66.20
2018-06-09T17:21:11.208Z,67.30
2018-06-09T17:23:41.033Z,67.10
2018-06-09T17:26:10.136Z,67.40
2018-06-09T17:28:39.208Z,67.70
2018-06-09T17:31:08.407Z,68.10
2018-06-09T17:33:37.938Z,68.10
2018-06-09T17:38:36.733Z,68.50
2018-06-09T17:41:05.711Z,69.00
2018-06-09T17:43:34.732Z,69.10
2018-06-09T17:46:03.681Z,69.30
2018-06-09T17:48:32.773Z,69.40
2018-06-09T17:51:01.857Z,69.40
2018-06-09T17:53:31.320Z,69.40
2018-06-09T17:56:00.361Z,68.90
2018-06-09T17:58:29.999Z,69.90
2018-06-09T18:00:59.084Z,70.60
2018-06-09T18:03:28.162Z,70.70
2018-06-09T18:05:57.592Z,70.40
2018-06-09T18:08:26.659Z,70.30
2018-06-09T18:10:56.204Z,71.30
2018-06-09T18:13:25.888Z,70.60
2018-06-09T18:15:54.973Z,71.00
2018-06-09T18:18:24.491Z,70.70
2018-06-09T18:20:53.564Z,70.70
2018-06-09T18:23:23.628Z,71.00
2018-06-09T18:25:53.000Z,70.60
2018-06-09T18:28:21.994Z,71.00
2018-06-09T18:30:50.996Z,71.30
2018-06-09T18:33:20.090Z,71.40
2018-06-09T18:35:49.064Z,72.50
2018-06-09T18:38:18.173Z,72.50
2018-06-09T18:40:47.378Z,72.00
2018-06-09T18:43:17.117Z,72.40
2018-06-09T18:45:46.166Z,71.90
2018-06-09T18:48:15.301Z,71.80
2018-06-09T18:50:44.870Z,72.00
2018-06-09T18:53:14.014Z,72.40
2018-06-09T18:55:43.160Z,72.30
2018-06-09T18:58:12.341Z,72.70
2018-06-09T19:00:41.450Z,72.80
2018-06-09T19:03:11.049Z,73.70
2018-06-09T19:05:40.192Z,74.50
2018-06-09T19:08:09.235Z,73.50
2018-06-09T19:10:38.265Z,74.20
2018-06-09T19:13:07.836Z,75.40
2018-06-09T19:15:36.883Z,76.30
2018-06-09T19:18:06.062Z,77.10
2018-06-09T19:20:35.123Z,77.00
2018-06-09T19:23:04.335Z,76.10
2018-06-09T19:25:33.337Z,76.20
2018-06-09T19:28:02.428Z,76.00
2018-06-09T19:30:31.611Z,77.20
2018-06-09T19:33:00.973Z,77.60
2018-06-09T19:35:30.020Z,78.00
2018-06-09T19:37:59.111Z,78.20
2018-06-09T19:40:28.225Z,79.30
2018-06-09T19:42:57.684Z,79.40
2018-06-09T19:45:26.984Z,80.30
2018-06-09T19:47:56.113Z,80.80
2018-06-09T19:50:25.232Z,81.00
2018-06-09T19:55:23.474Z,81.60
2018-06-09T19:57:52.597Z,82.10
2018-06-09T20:00:22.113Z,82.00
2018-06-09T20:02:51.623Z,82.40
2018-06-09T20:05:20.759Z,82.90
2018-06-09T20:07:49.937Z,82.70
2018-06-09T20:10:19.069Z,82.70
2018-06-09T20:12:48.161Z,82.00
2018-06-09T20:15:17.444Z,81.90
2018-06-09T20:17:46.588Z,81.60
2018-06-09T20:20:15.696Z,81.50
2018-06-09T20:22:44.747Z,81.20
2018-06-09T20:25:14.215Z,82.10
2018-06-09T20:30:12.489Z,82.50
2018-06-09T20:32:41.760Z,82.60
2018-06-09T20:35:11.237Z,82.50
2018-06-09T20:37:40.815Z,82.10
2018-06-09T20:40:10.204Z,82.10
2018-06-09T20:45:08.753Z,82.50
2018-06-09T20:47:38.346Z,82.30
2018-06-09T20:50:07.716Z,82.10
2018-06-09T20:52:37.394Z,82.30
2018-06-09T20:55:06.490Z,82.50
2018-06-09T20:57:36.256Z,82.50
2018-06-09T21:00:05.633Z,82.90
2018-06-09T21:02:36.622Z,82.70
2018-06-09T21:05:06.688Z,83.00
2018-06-09T21:07:37.422Z,82.30
2018-06-09T21:10:07.631Z,82.00
2018-06-09T21:12:37.249Z,82.50
2018-06-09T21:15:07.139Z,83.10
2018-06-09T21:17:36.676Z,84.70
2018-06-09T21:20:06.578Z,85.80
2018-06-09T21:22:35.901Z,86.20
2018-06-09T21:25:05.557Z,85.90
2018-06-09T21:27:39.666Z,86.40
2018-06-09T21:30:13.871Z,86.80
2018-06-09T21:32:44.244Z,87.00
2018-06-09T21:35:29.652Z,87.30
2018-06-09T21:38:03.865Z,87.50
2018-06-09T21:40:38.256Z,87.70
2018-06-09T21:43:12.549Z,87.80
2018-06-09T21:45:47.404Z,88.00
2018-06-09T21:48:16.990Z,88.40
2018-06-09T21:50:46.071Z,88.20
2018-06-09T21:53:15.403Z,89.30
2018-06-09T21:55:44.550Z,89.20
2018-06-09T21:58:13.666Z,89.20
2018-06-09T22:00:42.904Z,89.30
2018-06-09T22:03:12.230Z,89.30
2018-06-09T22:05:41.353Z,90.00
2018-06-09T22:08:10.564Z,89.10
2018-06-09T22:10:39.929Z,89.20
2018-06-09T22:13:09.070Z,89.30
2018-06-09T22:15:38.790Z,89.60
2018-06-09T22:18:07.940Z,89.80
2018-06-09T22:20:38.217Z,90.30
2018-06-09T22:23:08.403Z,91.10
2018-06-09T22:26:44.533Z,91.20
2018-06-09T22:29:13.680Z,91.10
2018-06-09T22:31:43.005Z,91.10
2018-06-09T22:34:12.489Z,91.30
2018-06-09T22:36:41.556Z,91.70
2018-06-09T22:39:10.745Z,92.00
2018-06-09T22:41:39.869Z,92.10
2018-06-09T22:44:09.672Z,92.00
2018-06-09T22:46:38.897Z,91.70
2018-06-09T22:49:07.964Z,92.30
2018-06-09T22:51:37.440Z,92.80
2018-06-09T22:54:06.536Z,92.90
2018-06-09T22:56:35.634Z,93.00
2018-06-09T22:59:04.903Z,93.00
2018-06-09T23:01:34.129Z,92.80
2018-06-09T23:04:03.899Z,92.90
2018-06-09T23:06:32.982Z,92.80
2018-06-09T23:11:31.331Z,92.70
2018-06-09T23:14:01.247Z,93.30
2018-06-09T23:16:30.365Z,93.60
2018-06-09T23:18:59.460Z,93.60
2018-06-09T23:21:28.608Z,93.80
2018-06-09T23:23:57.729Z,93.50
2018-06-09T23:26:26.897Z,93.60
2018-06-09T23:28:56.137Z,93.60
2018-06-09T23:31:25.021Z,93.80
2018-06-09T23:33:54.157Z,93.70
2018-06-09T23:36:23.669Z,93.90
2018-06-09T23:38:53.163Z,94.10
2018-06-09T23:43:50.948Z,94.40
2018-06-09T23:46:20.631Z,94.20
2018-06-09T23:48:49.613Z,94.30
2018-06-09T23:51:19.065Z,94.10
2018-06-09T23:53:48.226Z,94.00
2018-06-09T23:56:17.327Z,94.30
2018-06-09T23:58:46.814Z,94.30
